Time;durP1;ratioP1;P1;durP2;ratioP2;P2;SDS_P1;SDS_P2;PMS_P1;PMS_P2;Temp;Humidity;BMP_temperature;BMP_pressure;BME280_temperature;BME280_humidity;BME280_pressure;Samples;Min_cycle;Max_cycle;Signal;HPM_P1;HPM_P2
2021/11/12 00:13:39;;;;;;;;;9.50;9.25;;;;;5.63;72.70;101861.91;5082261;28;45367;-80
2021/11/12 00:16:05;;;;;;;;;10.00;10.00;;;;;5.50;72.94;101847.50;5082177;28;45398;-80
2021/11/12 00:18:33;;;;;;;;;11.25;6.75;;;;;5.67;72.72;101862.13;5081763;28;46056;-80
2021/11/12 00:21:01;;;;;;;;;9.50;7.25;;;;;5.72;72.70;101857.16;5063804;28;45815;-80
2021/11/12 00:23:28;;;;;;;;;9.75;6.00;;;;;5.61;72.47;101835.13;5083325;28;46217;-80
2021/11/12 00:25:55;;;;;;;;;11.00;7.00;;;;;5.76;72.45;101865.97;5086016;28;45472;-80
2021/11/12 00:28:25;;;;;;;;;7.25;6.00;;;;;5.74;72.40;101860.72;5085406;28;46316;-79
2021/11/12 00:36:50;;;;;;;;;10.25;8.50;;;;;5.60;72.34;101829.06;5065563;28;45710;-79
2021/11/12 00:38:53;;;;;;;;;8.75;7.25;;;;;5.69;72.59;101839.81;5058782;28;45580;-79
2021/11/12 00:42:07;;;;;;;;;5.25;4.75;;;;;5.56;72.60;101815.13;5070591;28;45259;-79
2021/11/12 00:46:49;;;;;;;;;10.50;10.00;;;;;5.64;72.37;101825.78;5085172;28;45300;-79
2021/11/12 00:49:19;;;;;;;;;11.75;10.00;;;;;5.66;72.40;101823.28;5084781;28;46184;-79
2021/11/12 00:51:47;;;;;;;;;7.00;6.75;;;;;5.79;72.31;101841.13;5066747;28;45327;-79
2021/11/12 00:54:14;;;;;;;;;11.25;8.00;;;;;5.79;72.71;101835.97;5085221;28;45280;-79
2021/11/12 00:56:40;;;;;;;;;9.25;7.50;;;;;5.81;72.37;101836.94;5085566;28;45576;-80
2021/11/12 00:59:08;;;;;;;;;5.25;5.25;;;;;5.88;72.38;101851.00;5084945;28;46161;-80
2021/11/12 01:01:37;;;;;;;;;5.50;5.50;;;;;5.94;72.38;101847.81;5084499;28;45303;-79
2021/11/12 01:04:07;;;;;;;;;9.50;7.00;;;;;5.68;72.43;101807.06;5085147;28;45283;-79
2021/11/12 01:06:33;;;;;;;;;8.75;6.75;;;;;5.91;72.39;101839.94;5085353;28;45200;-80
2021/11/12 01:08:58;;;;;;;;;6.00;6.00;;;;;6.02;72.33;101848.16;5084650;28;46419;-80
2021/11/12 01:11:26;;;;;;;;;4.00;4.00;;;;;6.00;72.69;101836.88;5063244;28;45973;-80
2021/11/12 01:13:52;;;;;;;;;11.50;5.50;;;;;5.95;72.28;101816.88;5065001;28;45374;-80
2021/11/12 01:16:18;;;;;;;;;5.00;5.00;;;;;6.07;72.55;101831.22;5064748;28;45380;-80
2021/11/12 01:18:45;;;;;;;;;6.25;4.25;;;;;6.08;72.11;101827.81;5066503;28;45219;-80
2021/11/12 01:21:12;;;;;;;;;3.75;3.25;;;;;6.08;72.32;101823.53;5083497;28;45294;-79
2021/11/12 01:23:40;;;;;;;;;10.25;7.50;;;;;5.95;72.02;101805.66;5084736;28;45293;-79
2021/11/12 01:26:06;;;;;;;;;6.75;6.75;;;;;5.96;72.34;101803.16;5084298;28;45481;-79
2021/11/12 01:28:33;;;;;;;;;1.50;1.50;;;;;6.08;72.09;101822.63;5084081;28;45298;-79
2021/11/12 01:30:59;;;;;;;;;7.50;7.50;;;;;6.07;71.88;101821.72;5079025;28;45266;-79
2021/11/12 01:33:25;;;;;;;;;3.75;3.75;;;;;5.95;71.76;101801.34;5081233;28;45428;-79
2021/11/12 01:35:53;;;;;;;;;8.50;6.75;;;;;6.02;71.09;101812.88;5084024;28;45169;-79
2021/11/12 01:38:20;;;;;;;;;5.75;4.25;;;;;6.03;71.74;101799.13;5082469;28;46969;-79
2021/11/12 01:40:47;;;;;;;;;6.00;6.00;;;;;6.00;72.05;101795.53;5084419;28;45346;-79
2021/11/12 01:43:19;;;;;;;;;4.00;4.00;;;;;6.07;72.15;101810.53;5084368;28;45283;-80
2021/11/12 01:48:27;;;;;;;;;5.00;5.00;;;;;5.95;72.00;101797.91;5083912;28;45567;-79
2021/11/12 01:53:27;;;;;;;;;9.00;4.25;;;;;5.95;72.73;101806.53;5084187;28;45374;-79
2021/11/12 01:58:53;;;;;;;;;5.00;5.00;;;;;5.90;71.87;101777.03;5083568;28;45955;-79
2021/11/12 02:01:21;;;;;;;;;3.00;2.00;;;;;6.00;71.61;101798.97;5065789;28;45349;-79
2021/11/12 02:03:49;;;;;;;;;6.50;6.00;;;;;5.90;71.43;101786.47;5084243;28;45292;-79
2021/11/12 02:06:21;;;;;;;;;5.25;5.25;;;;;5.94;71.35;101789.25;5082792;28;45616;-79
2021/11/12 02:08:47;;;;;;;;;8.25;8.25;;;;;5.70;71.78;101752.88;5083616;28;45398;-79
2021/11/12 02:11:13;;;;;;;;;11.25;5.50;;;;;5.68;71.29;101759.66;5083669;28;45422;-79
2021/11/12 02:13:40;;;;;;;;;8.75;7.25;;;;;5.63;71.21;101761.16;5084323;28;45313;-79
2021/11/12 02:16:07;;;;;;;;;9.25;6.75;;;;;5.56;71.53;101767.72;5065487;28;45616;-79
2021/11/12 02:18:37;;;;;;;;;6.25;5.50;;;;;5.40;71.63;101764.47;5083562;28;45606;-79
2021/11/12 02:24:06;;;;;;;;;12.25;6.50;;;;;5.25;71.78;101780.09;5083808;28;45474;-79
2021/11/12 02:26:35;;;;;;;;;10.75;5.75;;;;;5.05;71.96;101776.56;5081757;28;45252;-80
2021/11/12 02:29:04;;;;;;;;;11.00;5.75;;;;;4.86;72.79;101756.72;5083675;28;45354;-80
2021/11/12 02:31:30;;;;;;;;;4.00;4.00;;;;;4.77;73.02;101763.22;5082870;28;45302;-80
2021/11/12 02:34:04;;;;;;;;;3.75;3.75;;;;;4.75;73.08;101772.56;5082489;28;45262;-79
2021/11/12 02:36:30;;;;;;;;;6.75;6.75;;;;;4.65;73.31;101776.38;5081560;28;45278;-79
2021/11/12 02:38:55;;;;;;;;;2.50;2.50;;;;;4.63;73.63;101771.97;5083157;28;45338;-79
2021/11/12 02:41:24;;;;;;;;;3.25;3.00;;;;;4.52;74.15;101768.84;5083379;28;45266;-80
2021/11/12 02:43:50;;;;;;;;;7.00;5.25;;;;;4.50;74.07;101761.03;5083596;28;45271;-79
2021/11/12 02:46:20;;;;;;;;;10.25;5.50;;;;;4.54;74.29;101751.75;5082666;28;45348;-79
2021/11/12 02:48:46;;;;;;;;;5.75;3.00;;;;;4.61;73.45;101764.16;5081080;28;47397;-79
2021/11/12 02:51:18;;;;;;;;;5.25;4.50;;;;;4.50;73.85;101749.84;5083191;28;45234;-79
2021/11/12 02:53:44;;;;;;;;;5.50;3.25;;;;;4.55;73.95;101769.88;5064821;28;45318;-79
2021/11/12 02:56:15;;;;;;;;;4.25;3.25;;;;;4.36;74.80;101750.03;5083277;28;45300;-80
2021/11/12 02:58:41;;;;;;;;;4.50;3.75;;;;;4.43;74.83;101767.56;5081664;28;46325;-79
2021/11/12 03:01:09;;;;;;;;;3.00;1.25;;;;;4.14;74.60;101714.53;5082755;28;45323;-79
2021/11/12 03:03:35;;;;;;;;;5.50;5.50;;;;;4.34;74.32;101748.16;5083324;28;45297;-80
2021/11/12 03:06:01;;;;;;;;;3.00;3.00;;;;;4.37;74.59;101769.84;5083289;28;45186;-79
2021/11/12 03:08:27;;;;;;;;;4.50;3.25;;;;;4.24;74.25;101752.88;5082256;28;46165;-79
2021/11/12 03:10:55;;;;;;;;;7.25;2.50;;;;;4.17;74.86;101749.06;5083101;28;45331;-79
2021/11/12 03:13:21;;;;;;;;;6.75;5.00;;;;;4.18;73.96;101749.97;5083132;28;45314;-80
2021/11/12 03:15:46;;;;;;;;;2.00;2.00;;;;;4.20;74.51;101756.09;5082831;28;45518;-80
2021/11/12 03:18:11;;;;;;;;;7.50;4.25;;;;;3.91;74.23;101706.50;5082849;28;45977;-79
2021/11/12 03:20:39;;;;;;;;;1.00;1.00;;;;;4.16;74.64;101736.09;5082973;28;45325;-79
2021/11/12 03:23:24;;;;;;;;;5.75;4.50;;;;;4.31;74.28;101749.78;5083109;28;45275;-79
2021/11/12 03:31:35;;;;;;;;;3.00;3.00;;;;;4.55;74.12;101732.88;5062013;28;45333;-79
2021/11/12 04:01:33;;;;;;;;;3.00;3.00;;;;;5.13;72.26;101745.94;5065127;28;45407;-79
2021/11/12 04:18:14;;;;;;;;;2.50;1.25;;;;;5.30;72.17;101714.06;5085594;28;45366;-80
2021/11/12 05:02:56;;;;;;;;;4.75;3.00;;;;;4.60;72.68;101654.06;5085000;28;45436;-80
2021/11/12 05:09:55;;;;;;;;;2.00;2.00;;;;;4.68;72.13;101614.03;5031701;28;45582;-79
2021/11/12 05:12:44;;;;;;;;;3.50;1.50;;;;;4.68;73.14;101620.88;5062971;28;45330;-80
2021/11/12 05:50:42;;;;;;;;;2.50;2.50;;;;;4.80;72.29;101613.72;5083915;28;46056;-80
2021/11/12 05:55:52;;;;;;;;;6.75;3.00;;;;;4.47;72.28;101561.44;5083736;28;45295;-81
2021/11/12 05:58:18;;;;;;;;;1.25;1.00;;;;;4.65;72.15;101597.50;5083523;28;45327;-81
2021/11/12 06:00:44;;;;;;;;;2.00;1.75;;;;;4.44;72.59;101572.47;5083051;28;45274;-79
2021/11/12 06:03:10;;;;;;;;;3.50;2.75;;;;;4.57;72.25;101608.34;5083392;28;45180;-79
2021/11/12 06:05:35;;;;;;;;;5.00;3.25;;;;;4.54;72.74;101605.63;5083391;28;45351;-80
2021/11/12 06:08:01;;;;;;;;;5.00;2.00;;;;;4.55;72.71;101617.72;5082677;28;45481;-78
2021/11/12 06:10:27;;;;;;;;;3.25;2.00;;;;;4.58;72.36;101601.50;5063383;28;47388;-79
2021/11/12 06:12:52;;;;;;;;;2.25;2.00;;;;;4.55;72.73;101598.78;5081894;28;45477;-76
2021/11/12 06:15:17;;;;;;;;;1.00;1.00;;;;;4.60;72.87;101606.75;5083371;28;45219;-77
2021/11/12 06:17:43;;;;;;;;;2.50;1.00;;;;;4.61;72.89;101609.41;5080421;28;45354;-77
2021/11/12 06:20:10;;;;;;;;;2.00;1.00;;;;;4.55;72.67;101602.25;5064271;28;46988;-78
2021/11/12 06:22:36;;;;;;;;;1.00;1.00;;;;;4.58;72.65;101604.09;5080529;28;45512;-78
2021/11/12 06:25:03;;;;;;;;;2.75;1.25;;;;;4.50;72.82;101598.56;5082682;28;45269;-78
2021/11/12 06:27:29;;;;;;;;;3.00;1.00;;;;;4.51;73.21;101602.03;5082612;28;45302;-78
2021/11/12 06:29:54;;;;;;;;;2.00;2.00;;;;;4.46;73.14;101609.53;5081721;28;45265;-78
2021/11/12 06:32:20;;;;;;;;;2.50;2.50;;;;;4.44;73.22;101606.00;5082367;28;45238;-79
2021/11/12 06:34:47;;;;;;;;;1.25;1.25;;;;;4.53;73.16;101608.13;5064587;28;45277;-79
2021/11/12 06:37:13;;;;;;;;;2.00;2.00;;;;;4.55;73.29;101604.84;5064542;28;45690;-79
2021/11/12 06:39:38;;;;;;;;;1.75;1.75;;;;;4.47;72.93;101589.81;5063441;28;47451;-79
2021/11/12 06:42:14;;;;;;;;;1.00;1.00;;;;;4.57;72.97;101597.16;5081932;28;45421;-79
2021/11/12 06:44:51;;;;;;;;;3.00;2.00;;;;;4.53;72.47;101597.81;5075527;28;45425;-79
2021/11/12 06:50:12;;;;;;;;;3.00;3.00;;;;;4.36;73.05;101569.56;5081843;28;45390;-80
2021/11/12 06:52:39;;;;;;;;;3.50;2.75;;;;;4.50;73.16;101588.25;5084751;28;45362;-80
2021/11/12 06:55:07;;;;;;;;;2.50;2.50;;;;;4.51;73.22;101591.72;5082830;28;45320;-80
2021/11/12 06:57:33;;;;;;;;;2.00;1.50;;;;;4.55;73.46;101596.19;5082912;28;45331;-80
2021/11/12 06:59:58;;;;;;;;;0.75;0.75;;;;;4.56;73.02;101590.22;5082050;28;45373;-80
2021/11/12 07:02:25;;;;;;;;;0.75;0.75;;;;;4.59;72.84;101594.66;5072089;28;45358;-79
2021/11/12 07:04:51;;;;;;;;;2.50;1.25;;;;;4.49;72.75;101568.44;5063887;28;45474;-79
2021/11/12 07:07:17;;;;;;;;;1.00;0.50;;;;;4.65;72.95;101576.88;5062744;28;45495;-78
2021/11/12 07:09:46;;;;;;;;;2.50;1.25;;;;;4.71;72.71;101582.31;5079960;28;45335;-78
2021/11/12 07:12:13;;;;;;;;;2.00;2.00;;;;;4.65;72.21;101577.78;5082072;28;44770;-77
2021/11/12 07:14:39;;;;;;;;;2.00;2.00;;;;;4.74;73.01;101597.06;5062888;28;45410;-79
2021/11/12 07:17:05;;;;;;;;;0.75;0.75;;;;;4.75;72.38;101593.69;5076397;28;45453;-77
2021/11/12 07:19:31;;;;;;;;;3.00;1.00;;;;;4.58;72.64;101570.56;5080694;28;45393;-78
2021/11/12 07:21:57;;;;;;;;;1.00;1.00;;;;;4.68;72.65;101587.34;5081011;28;45387;-78
2021/11/12 07:24:24;;;;;;;;;2.00;2.00;;;;;4.69;72.30;101582.25;5081165;28;45251;-79
2021/11/12 07:26:50;;;;;;;;;4.25;1.75;;;;;4.62;73.29;101579.34;5083019;28;45549;-80
2021/11/12 07:29:18;;;;;;;;;0.50;0.50;;;;;4.55;72.71;101568.72;5082188;27;45523;-81
2021/11/12 07:31:44;;;;;;;;;1.25;1.00;;;;;4.70;72.67;101585.72;5082263;28;45508;-80
2021/11/12 07:34:09;;;;;;;;;1.00;1.00;;;;;4.71;72.37;101574.59;5060811;28;45390;-81
2021/11/12 07:36:40;;;;;;;;;1.50;1.50;;;;;4.66;72.21;101571.78;5077193;28;45485;-81
2021/11/12 07:39:16;;;;;;;;;1.00;1.00;;;;;4.48;72.59;101542.56;5081226;28;47269;-79
2021/11/12 07:48:59;;;;;;;;;1.00;1.00;;;;;4.66;73.19;101564.06;5082806;28;45515;-79
2021/11/12 07:51:25;;;;;;;;;0.25;0.25;;;;;4.67;73.21;101557.22;5061778;28;45993;-81
2021/11/12 07:53:50;;;;;;;;;1.00;1.00;;;;;4.76;72.99;101554.16;5080853;28;45337;-80
2021/11/12 07:56:16;;;;;;;;;2.00;2.00;;;;;4.72;73.33;101555.75;5080733;28;45461;-79
2021/11/12 07:58:42;;;;;;;;;1.00;1.00;;;;;4.69;73.12;101547.84;5080967;28;45696;-79
2021/11/12 08:01:08;;;;;;;;;1.00;1.00;;;;;4.91;73.18;101587.53;5081305;28;45353;-80
2021/11/12 08:03:34;;;;;;;;;1.00;1.00;;;;;5.00;72.69;101597.38;5081161;28;45282;-80
2021/11/12 08:06:01;;;;;;;;;0.25;0.25;;;;;4.94;72.32;101585.94;5081956;28;45382;-80
2021/11/12 08:08:29;;;;;;;;;2.00;1.00;;;;;4.80;72.38;101566.38;5080808;28;45367;-81
2021/11/12 08:11:01;;;;;;;;;3.25;1.50;;;;;4.99;72.01;101606.81;5081264;28;45275;-82
2021/11/12 08:16:24;;;;;;;;;0.00;0.00;;;;;5.13;72.63;101598.81;5083172;28;45358;-81
2021/11/12 08:18:54;;;;;;;;;1.25;0.75;;;;;5.07;72.29;101579.69;5080134;28;46453;-80
2021/11/12 08:36:39;;;;;;;;;2.00;1.00;;;;;5.63;71.78;101591.53;5081042;28;45273;-80
2021/11/12 08:41:45;;;;;;;;;2.00;0.00;;;;;5.51;71.80;101558.31;5081960;28;45442;-81
2021/11/12 08:47:00;;;;;;;;;1.25;0.50;;;;;5.76;71.19;101571.38;5084589;28;45532;-81
2021/11/12 08:49:32;;;;;;;;;0.25;0.25;;;;;5.85;71.63;101561.41;5083903;28;47003;-81
2021/11/12 08:51:59;;;;;;;;;2.75;1.75;;;;;5.89;70.99;101546.94;5064223;28;45248;-81
2021/11/12 08:54:29;;;;;;;;;1.75;1.75;;;;;6.03;71.20;101548.38;5078952;28;45481;-80
2021/11/12 08:56:54;;;;;;;;;2.50;2.50;;;;;6.23;70.87;101562.94;5085352;28;45268;-80
2021/11/12 08:59:20;;;;;;;;;1.00;1.00;;;;;6.23;70.59;101563.84;5084406;28;46305;-79
2021/11/12 09:01:46;;;;;;;;;4.75;2.75;;;;;5.63;70.63;101444.28;5065853;28;45309;-80
2021/11/12 09:04:13;;;;;;;;;1.00;1.00;;;;;6.53;70.26;101573.63;5079644;28;45256;-79
2021/11/12 09:06:39;;;;;;;;;1.00;1.00;;;;;6.50;69.80;101565.75;5064907;28;45210;-80
2021/11/12 09:09:05;;;;;;;;;0.00;0.00;;;;;6.56;69.99;101547.84;5063766;28;46044;-79
2021/11/12 09:11:31;;;;;;;;;1.50;1.00;;;;;6.87;69.84;101526.56;5046089;28;45374;-79
2021/11/12 09:14:00;;;;;;;;;2.00;1.00;;;;;7.36;68.84;101558.53;5073304;28;45252;-80
2021/11/12 09:16:34;;;;;;;;;1.75;1.75;;;;;7.40;68.36;101557.78;5084707;28;45477;-81
2021/11/12 09:19:00;;;;;;;;;2.00;1.50;;;;;7.51;68.29;101570.25;5083811;28;47192;-79
2021/11/12 09:21:26;;;;;;;;;3.25;2.50;;;;;7.39;68.26;101557.75;5083661;28;45287;-82
2021/11/12 09:23:54;;;;;;;;;1.00;1.00;;;;;7.46;68.18;101567.47;5084410;28;45268;-81
2021/11/12 09:26:20;;;;;;;;;1.25;1.25;;;;;7.46;67.82;101559.72;5066235;28;45473;-80
2021/11/12 09:28:45;;;;;;;;;1.75;1.75;;;;;7.42;67.89;101547.47;5084094;28;46088;-79
2021/11/12 09:31:10;;;;;;;;;3.50;3.00;;;;;7.19;68.02;101506.09;5083063;28;45345;-79
2021/11/12 09:33:37;;;;;;;;;3.25;1.75;;;;;7.47;67.94;101538.16;5084389;28;45286;-80
2021/11/12 09:36:06;;;;;;;;;5.50;2.50;;;;;7.43;68.00;101524.22;5083125;28;45674;-81
2021/11/12 09:38:32;;;;;;;;;4.00;1.75;;;;;7.60;67.75;101555.88;5082538;28;46160;-79
2021/11/12 09:40:58;;;;;;;;;1.00;1.00;;;;;7.51;67.70;101519.31;5066264;28;45428;-79
2021/11/12 09:43:24;;;;;;;;;2.75;2.75;;;;;7.77;67.45;101539.13;5084061;28;45533;-79
2021/11/12 09:45:50;;;;;;;;;4.00;2.00;;;;;7.85;66.92;101541.13;5084048;28;45254;-81
2021/11/12 09:48:16;;;;;;;;;4.00;2.00;;;;;7.77;66.87;101519.28;5083845;28;46078;-79
2021/11/12 09:50:41;;;;;;;;;5.00;1.00;;;;;7.76;66.97;101512.34;5065450;28;45292;-81
2021/11/12 09:53:07;;;;;;;;;5.00;3.25;;;;;7.73;66.77;101513.13;5083564;28;45376;-81
2021/11/12 09:55:33;;;;;;;;;2.75;2.25;;;;;7.72;66.33;101519.13;5083567;28;45506;-80
2021/11/12 09:58:00;;;;;;;;;2.25;2.25;;;;;7.61;66.37;101502.34;5064792;28;48366;-81
2021/11/12 10:00:27;;;;;;;;;11.00;2.00;;;;;7.57;66.81;101485.81;5083287;28;45236;-79
2021/11/12 10:02:54;;;;;;;;;3.75;2.50;;;;;7.54;66.11;101480.56;5083457;28;45280;-79
2021/11/12 10:05:39;;;;;;;;;3.75;1.50;;;;;7.62;66.40;101506.69;5083718;28;45172;-80
2021/11/12 10:08:38;;;;;;;;;4.00;2.00;;;;;7.66;66.79;101498.19;5083063;28;45271;-81
2021/11/12 10:11:10;;;;;;;;;1.75;1.75;;;;;7.71;66.37;101512.19;5039032;28;45316;-81
2021/11/12 10:13:41;;;;;;;;;3.25;3.25;;;;;7.78;66.61;101505.47;5068887;28;45238;-80
2021/11/12 10:19:12;;;;;;;;;2.00;2.00;;;;;7.84;66.50;101505.69;5083024;28;46144;-79
2021/11/12 10:21:55;;;;;;;;;6.50;4.50;;;;;7.97;66.25;101514.72;5083060;28;45425;-80
2021/11/12 10:24:23;;;;;;;;;3.75;3.75;;;;;7.99;65.92;101513.09;5083346;28;45602;-81
2021/11/12 10:26:52;;;;;;;;;4.00;3.50;;;;;7.92;65.58;101477.44;5083468;28;45300;-80
2021/11/12 10:29:22;;;;;;;;;3.25;2.25;;;;;7.91;65.76;101469.59;5081490;28;47391;-80
2021/11/12 10:31:51;;;;;;;;;2.00;2.00;;;;;7.89;65.75;101473.84;5082244;28;45437;-79
2021/11/12 10:34:20;;;;;;;;;3.25;2.00;;;;;7.77;65.16;101480.41;5081413;28;45318;-80
2021/11/12 10:36:56;;;;;;;;;1.50;1.50;;;;;7.81;65.56;101509.91;5084020;28;45565;-80
2021/11/12 10:39:27;;;;;;;;;2.25;2.25;;;;;7.79;65.80;101516.75;5083095;28;45433;-78
2021/11/12 10:41:53;;;;;;;;;4.25;3.25;;;;;7.70;65.33;101496.59;5083118;28;45326;-79
2021/11/12 10:44:18;;;;;;;;;6.00;4.25;;;;;7.67;65.58;101471.47;5063591;28;45383;-81
2021/11/12 10:46:44;;;;;;;;;2.75;2.75;;;;;7.71;66.20;101480.19;5064833;28;45621;-80
2021/11/12 10:49:22;;;;;;;;;4.25;3.25;;;;;7.80;66.01;101483.09;5082522;28;45268;-80
2021/11/12 10:51:51;;;;;;;;;3.00;3.00;;;;;7.86;65.49;101461.66;5083061;28;45381;-80
2021/11/12 10:54:29;;;;;;;;;1.00;1.00;;;;;7.85;65.34;101453.00;5082734;28;45335;-80
2021/11/12 10:56:54;;;;;;;;;6.00;2.25;;;;;7.80;65.74;101428.66;5083286;28;45542;-80
2021/11/12 10:59:20;;;;;;;;;4.75;3.00;;;;;7.75;65.80;101430.22;5082555;28;45359;-80
2021/11/12 11:01:48;;;;;;;;;3.00;1.00;;;;;7.71;66.35;101431.84;5081412;28;45260;-80
2021/11/12 11:04:21;;;;;;;;;4.00;1.25;;;;;7.64;66.27;101403.97;5082220;28;45325;-80
2021/11/12 11:06:49;;;;;;;;;5.00;2.75;;;;;7.82;65.56;101423.53;5062547;28;45323;-79
2021/11/12 11:09:14;;;;;;;;;3.00;1.75;;;;;7.67;65.92;101403.19;5060452;28;48636;-79
2021/11/12 11:11:45;;;;;;;;;3.00;1.00;;;;;7.91;65.96;101447.16;5062532;28;45236;-80
2021/11/12 11:14:47;;;;;;;;;3.00;3.00;;;;;8.03;66.19;101432.78;5062083;28;45367;-80
2021/11/12 11:17:29;;;;;;;;;3.00;2.75;;;;;8.02;65.55;101403.38;4962188;28;45623;-80
2021/11/12 11:19:54;;;;;;;;;2.25;1.00;;;;;8.28;65.65;101431.81;5051500;28;47164;-81
2021/11/12 11:22:20;;;;;;;;;3.50;2.00;;;;;8.27;65.79;101422.25;5061864;28;45380;-80
2021/11/12 11:24:49;;;;;;;;;2.00;2.00;;;;;8.19;65.46;101400.41;5062026;28;45227;-81
2021/11/12 11:27:15;;;;;;;;;9.25;5.75;;;;;8.41;65.54;101433.06;5070422;28;45449;-77
2021/11/12 11:29:40;;;;;;;;;3.25;2.00;;;;;8.49;64.63;101434.13;5081651;28;45289;-81
2021/11/12 11:32:07;;;;;;;;;2.00;2.00;;;;;8.51;64.32;101426.41;5081048;28;45300;-81
2021/11/12 11:34:33;;;;;;;;;3.50;2.00;;;;;8.56;64.15;101429.16;5063320;28;45288;-80
2021/11/12 11:37:03;;;;;;;;;2.75;2.00;;;;;8.61;64.24;101427.59;5062618;28;45256;-79
2021/11/12 11:39:29;;;;;;;;;2.00;1.75;;;;;8.64;64.15;101426.78;5081403;28;47159;-79
2021/11/12 11:41:57;;;;;;;;;2.00;2.00;;;;;8.67;63.68;101432.06;5063667;28;45620;-79
2021/11/12 11:44:22;;;;;;;;;3.50;2.75;;;;;8.67;64.21;101437.25;5082026;28;45409;-82
2021/11/12 11:46:51;;;;;;;;;4.00;3.75;;;;;8.62;63.34;101408.56;5082078;28;45512;-81
2021/11/12 11:49:22;;;;;;;;;1.50;1.50;;;;;8.84;63.22;101437.72;5081480;28;46091;-81
2021/11/12 11:51:54;;;;;;;;;6.50;2.50;;;;;8.86;63.67;101444.69;5082219;28;45444;-80
2021/11/12 11:54:21;;;;;;;;;5.00;2.00;;;;;8.97;63.33;101437.19;5082108;28;45358;-81
2021/11/12 11:56:51;;;;;;;;;2.25;1.00;;;;;9.08;63.08;101421.91;5083046;28;45319;-81
2021/11/12 11:59:25;;;;;;;;;1.50;1.50;;;;;9.22;62.87;101413.59;5080988;28;45565;-82
2021/11/12 12:01:59;;;;;;;;;3.50;2.50;;;;;9.32;62.39;101415.59;5081931;28;45193;-81
2021/11/12 12:04:41;;;;;;;;;2.75;2.75;;;;;9.42;62.21;101408.88;5056207;28;46915;-81
2021/11/12 12:07:16;;;;;;;;;3.25;3.00;;;;;9.57;62.41;101397.09;5081971;28;45330;-81
2021/11/12 12:09:48;;;;;;;;;1.75;1.75;;;;;9.49;61.92;101378.69;5081481;28;45329;-81
2021/11/12 12:12:29;;;;;;;;;1.50;1.00;;;;;9.74;61.62;101394.91;5063617;28;45309;-80
2021/11/12 12:15:17;;;;;;;;;3.25;2.25;;;;;9.81;61.55;101390.69;5081414;28;45532;-81
2021/11/12 12:17:48;;;;;;;;;1.00;1.00;;;;;9.70;61.59;101360.13;5080557;28;45205;-81
2021/11/12 12:20:25;;;;;;;;;1.25;1.25;;;;;9.85;61.60;101377.81;5081755;28;48469;-80
2021/11/12 13:25:59;;;;;;;;;5.25;2.75;;;;;10.23;61.88;101283.16;5085347;28;45438;-80
2021/11/12 13:28:26;;;;;;;;;4.00;4.00;;;;;10.25;61.93;101284.09;5067193;28;46253;-81
2021/11/12 13:30:58;;;;;;;;;4.50;3.00;;;;;10.35;62.19;101289.47;5064875;28;45631;-81
2021/11/12 13:33:41;;;;;;;;;4.50;2.50;;;;;10.16;62.34;101238.81;5059098;28;45410;-80
2021/11/12 13:36:12;;;;;;;;;3.50;2.75;;;;;10.32;62.26;101266.84;5061417;28;45367;-79
2021/11/12 13:38:41;;;;;;;;;3.50;2.00;;;;;10.42;62.24;101278.31;5061196;28;45888;-80
2021/11/12 13:41:08;;;;;;;;;2.00;2.00;;;;;10.47;62.24;101268.88;5054813;28;45373;-79
2021/11/12 13:43:44;;;;;;;;;1.00;1.00;;;;;10.26;62.21;101228.59;5057973;28;45442;-80
2021/11/12 13:46:10;;;;;;;;;2.25;2.00;;;;;10.53;62.27;101275.91;5082054;28;45395;-80
2021/11/12 13:48:51;;;;;;;;;1.75;1.75;;;;;10.58;62.27;101260.38;5081837;28;46516;-80
2021/11/12 13:51:25;;;;;;;;;2.75;1.25;;;;;10.56;62.39;101246.47;5081771;28;45404;-80
2021/11/12 13:53:52;;;;;;;;;5.00;2.75;;;;;10.70;62.42;101260.59;5081414;28;45304;-80
2021/11/12 13:56:17;;;;;;;;;4.50;4.50;;;;;10.75;62.44;101260.69;5082051;28;45675;-80
2021/11/12 13:58:43;;;;;;;;;3.00;2.25;;;;;10.72;62.50;101242.41;5082673;28;46254;-80
2021/11/12 14:01:21;;;;;;;;;3.25;2.25;;;;;10.78;62.56;101247.69;5082677;28;45290;-79
2021/11/12 14:03:47;;;;;;;;;4.00;2.50;;;;;10.94;62.42;101258.34;5082378;28;45296;-78
2021/11/12 14:06:13;;;;;;;;;2.00;2.00;;;;;10.77;62.37;101225.09;5082615;28;45609;-81
2021/11/12 14:08:42;;;;;;;;;2.00;2.00;;;;;10.87;62.68;101247.84;5082600;28;46247;-78
2021/11/12 14:11:26;;;;;;;;;3.50;2.75;;;;;10.92;62.96;101245.31;5083120;28;45442;-79
2021/11/12 14:13:54;;;;;;;;;3.50;2.75;;;;;10.94;62.93;101247.94;5080771;28;45354;-81
2021/11/12 14:16:35;;;;;;;;;3.75;3.00;;;;;10.93;63.11;101235.78;5045551;28;45301;-79
2021/11/12 14:24:56;;;;;;;;;4.00;4.00;;;;;11.01;63.40;101228.94;5055031;28;45625;-77
2021/11/12 14:35:26;;;;;;;;;4.00;4.00;;;;;11.19;63.51;101238.75;5082306;28;45454;-79
2021/11/12 14:46:39;;;;;;;;;2.50;2.25;;;;;11.56;62.49;101190.56;5029288;28;45371;-79
2021/11/12 14:52:12;;;;;;;;;4.25;4.25;;;;;11.96;62.65;101216.22;5081030;28;45522;-79
2021/11/12 14:54:51;;;;;;;;;3.00;2.75;;;;;11.93;62.13;101201.41;5077237;28;45450;-78
2021/11/12 14:57:37;;;;;;;;;4.75;3.75;;;;;12.01;62.03;101217.16;5080168;28;45355;-80
2021/11/12 15:00:11;;;;;;;;;4.75;3.00;;;;;11.89;61.94;101200.47;5080985;28;45237;-80
2021/11/12 15:02:37;;;;;;;;;3.75;2.00;;;;;11.99;62.32;101219.75;5080173;28;46126;-79
2021/11/12 15:05:04;;;;;;;;;3.00;3.00;;;;;12.05;62.22;101229.34;5080598;28;45306;-77
2021/11/12 15:07:52;;;;;;;;;5.75;5.75;;;;;11.99;62.02;101224.97;5077515;27;45686;-79
2021/11/12 15:10:26;;;;;;;;;4.50;4.50;;;;;11.73;62.41;101217.69;5062220;28;45521;-79
2021/11/12 15:12:52;;;;;;;;;3.75;3.00;;;;;11.58;62.54;101210.56;5080153;28;47213;-78
2021/11/12 15:15:18;;;;;;;;;4.50;3.50;;;;;11.37;62.88;101190.34;5082270;28;45326;-79
2021/11/12 15:17:44;;;;;;;;;5.50;5.25;;;;;11.43;63.46;101215.59;5081931;28;45334;-80
2021/11/12 15:20:10;;;;;;;;;6.75;4.75;;;;;11.40;63.92;101221.66;5080981;27;45386;-78
2021/11/12 15:32:46;;;;;;;;;2.75;2.75;;;;;11.05;64.60;101216.84;5075208;28;45510;-78
2021/11/12 15:35:15;;;;;;;;;1.75;1.75;;;;;10.94;64.70;101206.25;5080981;28;45443;-78
2021/11/12 15:37:47;;;;;;;;;4.25;4.00;;;;;11.03;64.75;101238.53;5074758;28;45527;-77
2021/11/12 15:43:17;;;;;;;;;4.50;4.50;;;;;10.92;65.41;101226.19;5035362;28;45929;-77
2021/11/12 15:48:16;;;;;;;;;4.25;2.00;;;;;10.84;65.75;101236.50;5081323;28;45375;-78
2021/11/12 15:53:36;;;;;;;;;2.00;2.00;;;;;10.81;65.88;101239.06;5080258;28;46071;-78
2021/11/12 16:01:27;;;;;;;;;2.00;2.00;;;;;10.41;66.48;101176.78;5084695;28;45398;-77
2021/11/12 16:14:51;;;;;;;;;4.00;4.00;;;;;10.48;66.82;101217.72;5083238;28;45813;-78
2021/11/12 16:27:49;;;;;;;;;5.25;5.25;;;;;10.45;67.80;101221.16;5055922;28;45343;-78
2021/11/12 16:30:19;;;;;;;;;5.25;4.75;;;;;10.57;67.75;101243.03;5082493;28;45503;-78
2021/11/12 16:35:15;;;;;;;;;6.25;6.00;;;;;10.58;67.90;101244.75;5083624;27;46260;-75
2021/11/12 16:37:41;;;;;;;;;7.50;6.00;;;;;10.59;67.96;101238.69;5080013;28;45386;-76
2021/11/12 16:40:16;;;;;;;;;6.25;4.50;;;;;10.54;67.72;101227.34;5080157;28;45291;-77
2021/11/12 16:43:32;;;;;;;;;5.00;4.75;;;;;10.50;68.00;101219.47;5083944;28;45149;-77
2021/11/12 16:48:18;;;;;;;;;3.75;3.00;;;;;10.58;68.15;101239.56;5082413;28;45487;-76
2021/11/12 17:14:59;;;;;;;;;0.75;0.50;;;;;10.34;67.54;101181.88;5083219;28;45328;-78
2021/11/12 17:17:44;;;;;;;;;3.50;3.50;;;;;10.38;67.62;101169.78;5064536;28;48016;-77
2021/11/12 17:45:49;;;;;;;;;1.75;1.75;;;;;10.50;67.25;101172.63;5082382;28;45217;-77
2021/11/12 17:47:35;;;;;;;;;1.00;1.00;;;;;10.56;67.47;101177.03;5074877;28;45493;-78
2021/11/12 17:50:10;;;;;;;;;1.75;1.75;;;;;10.50;67.74;101163.94;5081799;28;46282;-78
2021/11/12 18:03:38;;;;;;;;;4.00;1.50;;;;;10.79;67.36;101181.75;5082126;28;45162;-77
2021/11/12 21:43:53;;;;;;;;;1.25;1.25;;;;;11.03;74.67;101167.31;5082094;28;45532;-79
2021/11/12 21:48:51;;;;;;;;;3.00;2.00;;;;;11.08;74.89;101172.56;5083201;28;45342;-79
2021/11/12 21:51:28;;;;;;;;;1.00;0.50;;;;;11.09;74.87;101184.75;5063916;28;45486;-79
2021/11/12 21:53:56;;;;;;;;;2.00;2.00;;;;;11.07;74.90;101178.66;5082733;28;45461;-78
2021/11/12 21:56:22;;;;;;;;;1.00;1.00;;;;;11.10;74.98;101171.75;5081927;28;46297;-78
2021/11/12 21:58:48;;;;;;;;;2.00;0.25;;;;;10.85;75.00;101131.47;5063508;28;46918;-80
2021/11/12 22:01:15;;;;;;;;;3.00;2.00;;;;;10.84;74.47;101119.31;5064259;28;45536;-80